Aviation Digital Data Service (ADDS)

Output produced by METARs form (1242 UTC 22 February 2018)
found at http://www.aviationweather.gov/adds/metars/
 
EYKA 221220Z 35007KT 310V020 9999 SCT016 BKN023 M08/M14 Q1029 R08/090095
TAF EYKA 221102Z 2212/2312 07010KT 9000 BKN020 
     PROB40 
     TEMPO 2212/2214 BKN009 
     BECMG 2220/2221 3000 MIFG BR
       
EYPA 221220Z 05004KT 010V090 CAVOK M07/M12 Q1031 R01/0///95
TAF EYPA 221104Z 2212/2312 10010KT 9000 BKN025 
     BECMG 2220/2221 16010KT 
     BECMG 2309/2310 4000 SN OVC015 
     TEMPO 2310/2312 1500 BKN005
       
EYSA 221220Z 06005KT CAVOK M10/M12 Q1030 R32R/19//95 R32L/19//95 BLU NOSIG
TAF COR EYSA 221114Z 2212/2221 VRB05KT 7000 SCT025 
     BECMG 2217/2219 NSC
       
EYVI 221220Z 04008KT 9999 -SN BKN015 M08/M12 Q1027 R01/2///95 NOSIG
TAF EYVI 221108Z 2212/2312 VRB04KT 6000 SCT005 BKN015 
     TEMPO 2212/2216 05014KT 
     TEMPO 2216/2224 0800 FZFG SCT002 
     BECMG 2306/2308 NSC